F/V Rien D'impossibl — FGSH — position and weather

sailwx.info

Track history (hours):
 
Tides and Currents Weather Stations Pressure Air Temp Water Temp Dewpoint Dewpoint Depression Visibility Wind Speed Wind Dir Waves Ship Positions

F/V Rien D'impossibl

Last reported at 2017-Nov-17 14:50 UTC. Time now 2017-Nov-23 00:26 UTC.
Position N 48°22' W 004°47'.

Length 16 m.

Type: Fishing. MMSI: 228336000.

Date/timePositionNaut miles runAvg speedWind from/ knotsBaromVisibWave heightAir tempDewpointWater temp
2017-Nov-17 14:50N 48°22' W 004°47'0 0.0
2017-Nov-16 17:10N 48°22' W 004°47'0 0.2
2017-Nov-16 17:00N 48°22' W 004°47'0 0.0
2017-Nov-16 16:30N 48°22' W 004°47'0 0.0
2017-Nov-15 15:27N 48°22' W 004°47'0 0.1
2017-Nov-15 15:00N 48°22' W 004°47'0 0.0
2017-Nov-15 14:30N 48°22' W 004°47'0 0.0
2017-Nov-15 14:01N 48°22' W 004°47'0 0.0
2017-Nov-15 13:30N 48°22' W 004°47'4 7.9
2017-Nov-15 13:00N 48°18' W 004°47'4 7.5
2017-Nov-15 12:31N 48°14' W 004°47'1 1.6
2017-Nov-15 12:01N 48°13' W 004°47'2 4.7
2017-Nov-15 11:30N 48°12' W 004°50'1 2.6
2017-Nov-15 11:00N 48°12' W 004°52'1 2.4
2017-Nov-15 10:31N 48°11' W 004°51'2 3.5
2017-Nov-15 10:00N 48°11' W 004°48'1 1.5
2017-Nov-15 09:31N 48°11' W 004°48'1 1.1
2017-Nov-15 09:00N 48°11' W 004°47'2 4.4
2017-Nov-15 08:31N 48°11' W 004°44'1 2.1
2017-Nov-15 08:00N 48°10' W 004°45'1 1.5
2017-Nov-15 07:30N 48°10' W 004°46'2 3.8
2017-Nov-15 07:01N 48°08' W 004°47'1 1.9
2017-Nov-15 06:30N 48°07' W 004°47'1 2.0
2017-Nov-15 06:01N 48°08' W 004°47'1 2.1
2017-Nov-15 05:31N 48°09' W 004°46'2 3.3
2017-Nov-15 05:01N 48°07' W 004°46'1 1.9
2017-Nov-15 04:30N 48°08' W 004°45'1 2.1
2017-Nov-15 04:00N 48°09' W 004°44'2 4.4
2017-Nov-15 03:30N 48°10' W 004°47'4 7.3
2017-Nov-15 03:00N 48°14' W 004°48'5 9.4
2017-Nov-15 02:30N 48°19' W 004°48'2 0.1
2017-Nov-14 13:57N 48°20' W 004°47'4 8.6
2017-Nov-14 13:31N 48°17' W 004°47'2 4.9
2017-Nov-14 13:00N 48°14' W 004°46'0 0.8
2017-Nov-14 12:30N 48°14' W 004°47'1 2.8
2017-Nov-14 12:00N 48°12' W 004°46'2 4.0
2017-Nov-14 11:30N 48°12' W 004°49'2 3.3
2017-Nov-14 11:00N 48°11' W 004°51'1 2.4
2017-Nov-14 10:31N 48°12' W 004°52'1 1.2
2017-Nov-14 10:00N 48°12' W 004°53'2 4.5
2017-Nov-14 09:31N 48°10' W 004°52'3 6.0
2017-Nov-14 09:01N 48°08' W 004°48'3 6.3
2017-Nov-14 08:31N 48°10' W 004°44'1 1.4
2017-Nov-14 08:01N 48°11' W 004°44'0 0.8
2017-Nov-14 07:31N 48°11' W 004°44'1 2.3
2017-Nov-14 07:00N 48°10' W 004°45'0 0.9
2017-Nov-14 06:31N 48°10' W 004°45'2 4.6
2017-Nov-14 06:01N 48°11' W 004°48'1 2.0
2017-Nov-14 05:31N 48°11' W 004°47'3 6.5
2017-Nov-14 05:00N 48°13' W 004°44'2 4.7
2017-Nov-14 04:30N 48°15' W 004°41'0 0.4
2017-Nov-14 04:01N 48°15' W 004°41'0 0.4
2017-Nov-14 03:30N 48°15' W 004°41'1 1.6
2017-Nov-14 03:01N 48°16' W 004°42'5 9.3
2017-Nov-14 02:30N 48°19' W 004°47'3 0.1
2017-Nov-13 02:00N 48°22' W 004°47'0 0.0
2017-Nov-12 14:51N 48°21' W 004°47'2 6.6
2017-Nov-12 14:30N 48°19' W 004°47'4 7.1
2017-Nov-12 14:00N 48°16' W 004°47'4 7.5
2017-Nov-12 13:30N 48°12' W 004°47'1 2.6
2017-Nov-12 13:01N 48°11' W 004°47'2 3.9
2017-Nov-12 12:31N 48°10' W 004°44'1 2.2
2017-Nov-12 12:01N 48°10' W 004°43'1 1.2
2017-Nov-12 11:31N 48°09' W 004°42'1 2.1
2017-Nov-12 11:01N 48°08' W 004°43'1 2.6
2017-Nov-12 10:31N 48°08' W 004°45'2 4.4
2017-Nov-12 10:00N 48°07' W 004°47'3 5.6
2017-Nov-12 09:31N 48°09' W 004°45'0 1.0
2017-Nov-12 09:00N 48°09' W 004°45'1 1.0
2017-Nov-12 08:30N 48°08' W 004°46'1 1.4
2017-Nov-12 08:01N 48°08' W 004°46'1 1.1
2017-Nov-12 07:31N 48°07' W 004°47'1 1.5
2017-Nov-12 07:00N 48°07' W 004°48'2 4.0
2017-Nov-12 06:31N 48°09' W 004°46'1 1.6
2017-Nov-12 06:01N 48°08' W 004°47'1 1.5
2017-Nov-12 05:30N 48°08' W 004°47'1 1.3
2017-Nov-12 05:01N 48°07' W 004°48'3 5.2
2017-Nov-12 04:30N 48°08' W 004°45'2 3.4
2017-Nov-12 04:00N 48°10' W 004°43'3 6.3
2017-Nov-12 03:31N 48°11' W 004°47'3 6.7
2017-Nov-12 03:00N 48°14' W 004°47'5 9.2
2017-Nov-12 02:30N 48°19' W 004°47'3 0.1
2017-Nov-10 14:13N 48°22' W 004°47'0 0.1
2017-Nov-10 14:01N 48°22' W 004°47'0 0.0
2017-Nov-10 13:30N 48°22' W 004°47'3 5.8
2017-Nov-10 13:00N 48°19' W 004°48'4 7.0
2017-Nov-10 12:30N 48°15' W 004°48'4 7.7
2017-Nov-10 12:00N 48°11' W 004°48'3 5.1
2017-Nov-10 11:30N 48°09' W 004°48'1 1.8
2017-Nov-10 11:00N 48°08' W 004°48'1 2.2
2017-Nov-10 10:31N 48°09' W 004°47'1 2.6
2017-Nov-10 10:01N 48°10' W 004°47'1 2.5
2017-Nov-10 09:30N 48°10' W 004°45'1 1.5
2017-Nov-10 09:01N 48°10' W 004°44'2 3.7
2017-Nov-10 08:30N 48°11' W 004°47'2 3.3
2017-Nov-10 08:00N 48°12' W 004°48'2 4.9
2017-Nov-10 07:30N 48°12' W 004°52'1 1.4
2017-Nov-10 07:00N 48°12' W 004°53'1 1.3
2017-Nov-10 06:30N 48°12' W 004°52'0 0.4
2017-Nov-10 06:00N 48°12' W 004°52'1 1.9
2017-Nov-10 05:31N 48°11' W 004°51'1 2.5
2017-Nov-10 05:00N 48°10' W 004°50'1 2.5
2017-Nov-10 04:30N 48°09' W 004°49'1 2.0
2017-Nov-10 04:01N 48°09' W 004°48'1 2.6
2017-Nov-10 03:31N 48°10' W 004°47'4 7.7
2017-Nov-10 03:01N 48°14' W 004°47'4 8.9
2017-Nov-10 02:30N 48°18' W 004°47'3 0.2
2017-Nov-09 13:30N 48°21' W 004°47'3 6.2
2017-Nov-09 13:00N 48°18' W 004°49'4 8.4
2017-Nov-09 12:30N 48°14' W 004°51'3 5.9
2017-Nov-09 12:00N 48°11' W 004°52'2 3.2
2017-Nov-09 11:30N 48°13' W 004°51'2 3.4
2017-Nov-09 11:00N 48°13' W 004°48'1 1.3
2017-Nov-09 10:30N 48°12' W 004°48'3 5.6
2017-Nov-09 10:00N 48°10' W 004°45'2 3.8
2017-Nov-09 09:31N 48°11' W 004°47'0 0.6
2017-Nov-09 09:01N 48°11' W 004°47'2 3.3
2017-Nov-09 08:30N 48°09' W 004°48'1 1.7
2017-Nov-09 08:00N 48°09' W 004°47'0 0.9
2017-Nov-09 07:30N 48°09' W 004°48'1 2.0
2017-Nov-09 07:00N 48°10' W 004°47'1 2.1
2017-Nov-09 06:30N 48°11' W 004°46'3 5.7
2017-Nov-09 06:00N 48°13' W 004°43'3 5.3
2017-Nov-09 05:30N 48°15' W 004°41'1 1.2
2017-Nov-09 05:00N 48°15' W 004°41'1 1.3
2017-Nov-09 04:31N 48°14' W 004°42'1 2.3
2017-Nov-09 04:00N 48°15' W 004°41'1 1.5
2017-Nov-09 03:30N 48°15' W 004°42'2 3.7
2017-Nov-09 03:01N 48°15' W 004°44'4 8.4
2017-Nov-09 02:30N 48°19' W 004°47'2 0.2
2017-Nov-08 14:59N 48°21' W 004°47'510.4
2017-Nov-08 14:30N 48°16' W 004°48'4 8.6
2017-Nov-08 14:01N 48°12' W 004°48'2 4.1
2017-Nov-08 13:31N 48°14' W 004°46'3 6.9
2017-Nov-08 13:00N 48°12' W 004°51'1 2.2
2017-Nov-08 12:30N 48°11' W 004°51'1 1.7
2017-Nov-08 12:01N 48°10' W 004°50'2 4.4
2017-Nov-08 11:31N 48°11' W 004°47'1 1.5
2017-Nov-08 11:01N 48°10' W 004°47'1 2.3
2017-Nov-08 10:31N 48°10' W 004°46'1 1.8
2017-Nov-08 10:00N 48°09' W 004°45'1 2.7
2017-Nov-08 09:30N 48°08' W 004°46'2 4.5
2017-Nov-08 09:00N 48°07' W 004°49'4 7.4
2017-Nov-08 08:31N 48°08' W 004°54'1 2.8
2017-Nov-08 08:01N 48°09' W 004°56'1 2.2
2017-Nov-08 07:31N 48°10' W 004°55'1 1.5
2017-Nov-08 07:00N 48°11' W 004°54'2 3.8
2017-Nov-08 06:31N 48°09' W 004°57'1 2.0
2017-Nov-08 06:01N 48°10' W 004°56'1 1.9
2017-Nov-08 05:31N 48°11' W 004°55'2 3.6
2017-Nov-08 05:00N 48°11' W 004°52'3 6.3
2017-Nov-08 04:30N 48°11' W 004°47'2 3.3
2017-Nov-08 04:00N 48°10' W 004°46'3 6.6
2017-Nov-08 03:31N 48°13' W 004°46'4 8.0
2017-Nov-08 03:00N 48°17' W 004°47'4 7.3
2017-Nov-08 02:31N 48°21' W 004°47'  
Track history (hours):
 
Tides and Currents Weather Stations Pressure Air Temp Water Temp Dewpoint Dewpoint Depression Visibility Wind Speed Wind Dir Waves Ship Positions

F/V Rien D'impossibl

Last reported at 2017-Nov-17 14:50 UTC. Time now 2017-Nov-23 00:26 UTC.
Position N 48°22' W 004°47'.

Length 16 m.

Type: Fishing. MMSI: 228336000.

Date/timePositionNaut miles runAvg speedWind from/ knotsBaromVisibWave heightAir tempDewpointWater temp
2017-Nov-17 14:50N 48°22' W 004°47'0 0.0
2017-Nov-16 17:10N 48°22' W 004°47'0 0.2
2017-Nov-16 17:00N 48°22' W 004°47'0 0.0
2017-Nov-16 16:30N 48°22' W 004°47'0 0.0
2017-Nov-15 15:27N 48°22' W 004°47'0 0.1
2017-Nov-15 15:00N 48°22' W 004°47'0 0.0
2017-Nov-15 14:30N 48°22' W 004°47'0 0.0
2017-Nov-15 14:01N 48°22' W 004°47'0 0.0
2017-Nov-15 13:30N 48°22' W 004°47'4 7.9
2017-Nov-15 13:00N 48°18' W 004°47'4 7.5
2017-Nov-15 12:31N 48°14' W 004°47'1 1.6
2017-Nov-15 12:01N 48°13' W 004°47'2 4.7
2017-Nov-15 11:30N 48°12' W 004°50'1 2.6
2017-Nov-15 11:00N 48°12' W 004°52'1 2.4
2017-Nov-15 10:31N 48°11' W 004°51'2 3.5
2017-Nov-15 10:00N 48°11' W 004°48'1 1.5
2017-Nov-15 09:31N 48°11' W 004°48'1 1.1
2017-Nov-15 09:00N 48°11' W 004°47'2 4.4
2017-Nov-15 08:31N 48°11' W 004°44'1 2.1
2017-Nov-15 08:00N 48°10' W 004°45'1 1.5
2017-Nov-15 07:30N 48°10' W 004°46'2 3.8
2017-Nov-15 07:01N 48°08' W 004°47'1 1.9
2017-Nov-15 06:30N 48°07' W 004°47'1 2.0
2017-Nov-15 06:01N 48°08' W 004°47'1 2.1
2017-Nov-15 05:31N 48°09' W 004°46'2 3.3
2017-Nov-15 05:01N 48°07' W 004°46'1 1.9
2017-Nov-15 04:30N 48°08' W 004°45'1 2.1
2017-Nov-15 04:00N 48°09' W 004°44'2 4.4
2017-Nov-15 03:30N 48°10' W 004°47'4 7.3
2017-Nov-15 03:00N 48°14' W 004°48'5 9.4
2017-Nov-15 02:30N 48°19' W 004°48'2 0.1
2017-Nov-14 13:57N 48°20' W 004°47'4 8.6
2017-Nov-14 13:31N 48°17' W 004°47'2 4.9
2017-Nov-14 13:00N 48°14' W 004°46'0 0.8
2017-Nov-14 12:30N 48°14' W 004°47'1 2.8
2017-Nov-14 12:00N 48°12' W 004°46'2 4.0
2017-Nov-14 11:30N 48°12' W 004°49'2 3.3
2017-Nov-14 11:00N 48°11' W 004°51'1 2.4
2017-Nov-14 10:31N 48°12' W 004°52'1 1.2
2017-Nov-14 10:00N 48°12' W 004°53'2 4.5
2017-Nov-14 09:31N 48°10' W 004°52'3 6.0
2017-Nov-14 09:01N 48°08' W 004°48'3 6.3
2017-Nov-14 08:31N 48°10' W 004°44'1 1.4
2017-Nov-14 08:01N 48°11' W 004°44'0 0.8
2017-Nov-14 07:31N 48°11' W 004°44'1 2.3
2017-Nov-14 07:00N 48°10' W 004°45'0 0.9
2017-Nov-14 06:31N 48°10' W 004°45'2 4.6
2017-Nov-14 06:01N 48°11' W 004°48'1 2.0
2017-Nov-14 05:31N 48°11' W 004°47'3 6.5
2017-Nov-14 05:00N 48°13' W 004°44'2 4.7
2017-Nov-14 04:30N 48°15' W 004°41'0 0.4
2017-Nov-14 04:01N 48°15' W 004°41'0 0.4
2017-Nov-14 03:30N 48°15' W 004°41'1 1.6
2017-Nov-14 03:01N 48°16' W 004°42'5 9.3
2017-Nov-14 02:30N 48°19' W 004°47'3 0.1
2017-Nov-13 02:00N 48°22' W 004°47'0 0.0
2017-Nov-12 14:51N 48°21' W 004°47'2 6.6
2017-Nov-12 14:30N 48°19' W 004°47'4 7.1
2017-Nov-12 14:00N 48°16' W 004°47'4 7.5
2017-Nov-12 13:30N 48°12' W 004°47'1 2.6
2017-Nov-12 13:01N 48°11' W 004°47'2 3.9
2017-Nov-12 12:31N 48°10' W 004°44'1 2.2
2017-Nov-12 12:01N 48°10' W 004°43'1 1.2
2017-Nov-12 11:31N 48°09' W 004°42'1 2.1
2017-Nov-12 11:01N 48°08' W 004°43'1 2.6
2017-Nov-12 10:31N 48°08' W 004°45'2 4.4
2017-Nov-12 10:00N 48°07' W 004°47'3 5.6
2017-Nov-12 09:31N 48°09' W 004°45'0 1.0
2017-Nov-12 09:00N 48°09' W 004°45'1 1.0
2017-Nov-12 08:30N 48°08' W 004°46'1 1.4
2017-Nov-12 08:01N 48°08' W 004°46'1 1.1
2017-Nov-12 07:31N 48°07' W 004°47'1 1.5
2017-Nov-12 07:00N 48°07' W 004°48'2 4.0
2017-Nov-12 06:31N 48°09' W 004°46'1 1.6
2017-Nov-12 06:01N 48°08' W 004°47'1 1.5
2017-Nov-12 05:30N 48°08' W 004°47'1 1.3
2017-Nov-12 05:01N 48°07' W 004°48'3 5.2
2017-Nov-12 04:30N 48°08' W 004°45'2 3.4
2017-Nov-12 04:00N 48°10' W 004°43'3 6.3
2017-Nov-12 03:31N 48°11' W 004°47'3 6.7
2017-Nov-12 03:00N 48°14' W 004°47'5 9.2
2017-Nov-12 02:30N 48°19' W 004°47'3 0.1
2017-Nov-10 14:13N 48°22' W 004°47'0 0.1
2017-Nov-10 14:01N 48°22' W 004°47'0 0.0
2017-Nov-10 13:30N 48°22' W 004°47'3 5.8
2017-Nov-10 13:00N 48°19' W 004°48'4 7.0
2017-Nov-10 12:30N 48°15' W 004°48'4 7.7
2017-Nov-10 12:00N 48°11' W 004°48'3 5.1
2017-Nov-10 11:30N 48°09' W 004°48'1 1.8
2017-Nov-10 11:00N 48°08' W 004°48'1 2.2
2017-Nov-10 10:31N 48°09' W 004°47'1 2.6
2017-Nov-10 10:01N 48°10' W 004°47'1 2.5
2017-Nov-10 09:30N 48°10' W 004°45'1 1.5
2017-Nov-10 09:01N 48°10' W 004°44'2 3.7
2017-Nov-10 08:30N 48°11' W 004°47'2 3.3
2017-Nov-10 08:00N 48°12' W 004°48'2 4.9
2017-Nov-10 07:30N 48°12' W 004°52'1 1.4
2017-Nov-10 07:00N 48°12' W 004°53'1 1.3
2017-Nov-10 06:30N 48°12' W 004°52'0 0.4
2017-Nov-10 06:00N 48°12' W 004°52'1 1.9
2017-Nov-10 05:31N 48°11' W 004°51'1 2.5
2017-Nov-10 05:00N 48°10' W 004°50'1 2.5
2017-Nov-10 04:30N 48°09' W 004°49'1 2.0
2017-Nov-10 04:01N 48°09' W 004°48'1 2.6
2017-Nov-10 03:31N 48°10' W 004°47'4 7.7
2017-Nov-10 03:01N 48°14' W 004°47'4 8.9
2017-Nov-10 02:30N 48°18' W 004°47'3 0.2
2017-Nov-09 13:30N 48°21' W 004°47'3 6.2
2017-Nov-09 13:00N 48°18' W 004°49'4 8.4
2017-Nov-09 12:30N 48°14' W 004°51'3 5.9
2017-Nov-09 12:00N 48°11' W 004°52'2 3.2
2017-Nov-09 11:30N 48°13' W 004°51'2 3.4
2017-Nov-09 11:00N 48°13' W 004°48'1 1.3
2017-Nov-09 10:30N 48°12' W 004°48'3 5.6
2017-Nov-09 10:00N 48°10' W 004°45'2 3.8
2017-Nov-09 09:31N 48°11' W 004°47'0 0.6
2017-Nov-09 09:01N 48°11' W 004°47'2 3.3
2017-Nov-09 08:30N 48°09' W 004°48'1 1.7
2017-Nov-09 08:00N 48°09' W 004°47'0 0.9
2017-Nov-09 07:30N 48°09' W 004°48'1 2.0
2017-Nov-09 07:00N 48°10' W 004°47'1 2.1
2017-Nov-09 06:30N 48°11' W 004°46'3 5.7
2017-Nov-09 06:00N 48°13' W 004°43'3 5.3
2017-Nov-09 05:30N 48°15' W 004°41'1 1.2
2017-Nov-09 05:00N 48°15' W 004°41'1 1.3
2017-Nov-09 04:31N 48°14' W 004°42'1 2.3
2017-Nov-09 04:00N 48°15' W 004°41'1 1.5
2017-Nov-09 03:30N 48°15' W 004°42'2 3.7
2017-Nov-09 03:01N 48°15' W 004°44'4 8.4
2017-Nov-09 02:30N 48°19' W 004°47'2 0.2
2017-Nov-08 14:59N 48°21' W 004°47'510.4
2017-Nov-08 14:30N 48°16' W 004°48'4 8.6
2017-Nov-08 14:01N 48°12' W 004°48'2 4.1
2017-Nov-08 13:31N 48°14' W 004°46'3 6.9
2017-Nov-08 13:00N 48°12' W 004°51'1 2.2
2017-Nov-08 12:30N 48°11' W 004°51'1 1.7
2017-Nov-08 12:01N 48°10' W 004°50'2 4.4
2017-Nov-08 11:31N 48°11' W 004°47'1 1.5
2017-Nov-08 11:01N 48°10' W 004°47'1 2.3
2017-Nov-08 10:31N 48°10' W 004°46'1 1.8
2017-Nov-08 10:00N 48°09' W 004°45'1 2.7
2017-Nov-08 09:30N 48°08' W 004°46'2 4.5
2017-Nov-08 09:00N 48°07' W 004°49'4 7.4
2017-Nov-08 08:31N 48°08' W 004°54'1 2.8
2017-Nov-08 08:01N 48°09' W 004°56'1 2.2
2017-Nov-08 07:31N 48°10' W 004°55'1 1.5
2017-Nov-08 07:00N 48°11' W 004°54'2 3.8
2017-Nov-08 06:31N 48°09' W 004°57'1 2.0
2017-Nov-08 06:01N 48°10' W 004°56'1 1.9
2017-Nov-08 05:31N 48°11' W 004°55'2 3.6
2017-Nov-08 05:00N 48°11' W 004°52'3 6.3
2017-Nov-08 04:30N 48°11' W 004°47'2 3.3
2017-Nov-08 04:00N 48°10' W 004°46'3 6.6
2017-Nov-08 03:31N 48°13' W 004°46'4 8.0
2017-Nov-08 03:00N 48°17' W 004°47'4 7.3
2017-Nov-08 02:31N 48°21' W 004°47'  

Dump ship's entire track history